Time;durP1;ratioP1;P1;durP2;ratioP2;P2;SDS_P1;SDS_P2;PMS_P1;PMS_P2;Temp;Humidity;BMP_temperature;BMP_pressure;BME280_temperature;BME280_humidity;BME280_pressure;Samples;Min_cycle;Max_cycle;Signal;HPM_P1;HPM_P2
2022/01/02 00:00:19;;;;;;;11.52;7.78;;;11.70;99.90;;;;;;4994779;28;20042;-73
2022/01/02 00:02:55;;;;;;;11.90;6.93;;;11.70;99.90;;;;;;4990550;28;20046;-73
2022/01/02 00:05:23;;;;;;;13.45;7.32;;;11.70;99.90;;;;;;4995076;28;20038;-73
2022/01/02 00:08:06;;;;;;;12.73;6.75;;;11.60;99.90;;;;;;4994364;28;20069;-73
2022/01/02 00:10:57;;;;;;;11.82;6.85;;;11.80;99.90;;;;;;4992181;28;20680;-73
2022/01/02 00:13:31;;;;;;;10.38;6.13;;;11.70;99.90;;;;;;4992084;28;20046;-73
2022/01/02 00:16:06;;;;;;;12.00;7.10;;;11.70;99.90;;;;;;4993783;28;20042;-73
2022/01/02 00:18:35;;;;;;;13.23;7.13;;;11.70;99.90;;;;;;4991124;28;20043;-73
2022/01/02 00:21:06;;;;;;;16.70;6.82;;;11.70;99.90;;;;;;4989696;28;20050;-73
2022/01/02 00:23:44;;;;;;;13.40;6.95;;;11.70;99.90;;;;;;4994785;28;20038;-73
2022/01/02 00:26:16;;;;;;;13.48;6.88;;;11.70;99.90;;;;;;4993568;28;20493;-73
2022/01/02 00:28:45;;;;;;;12.27;7.13;;;11.70;99.90;;;;;;4988722;28;20137;-73
2022/01/02 00:31:12;;;;;;;16.15;7.22;;;11.70;99.90;;;;;;4993151;28;20133;-73
2022/01/02 00:33:37;;;;;;;11.80;6.75;;;11.70;99.90;;;;;;4987606;28;20038;-73
2022/01/02 00:36:04;;;;;;;12.27;6.85;;;11.70;99.90;;;;;;4996230;28;20405;-73
2022/01/02 00:38:30;;;;;;;12.32;6.95;;;11.70;99.90;;;;;;4992700;28;20489;-73
2022/01/02 00:40:58;;;;;;;11.23;7.13;;;11.70;99.90;;;;;;4994107;28;20050;-73
2022/01/02 00:43:43;;;;;;;10.27;6.90;;;11.60;99.90;;;;;;4993061;28;20527;-73
2022/01/02 00:46:10;;;;;;;15.23;7.75;;;11.70;99.90;;;;;;4989047;28;20100;-73
2022/01/02 00:48:39;;;;;;;14.00;8.23;;;11.70;99.90;;;;;;4989958;28;20045;-73
2022/01/02 00:51:14;;;;;;;15.93;7.53;;;11.60;99.90;;;;;;4992990;28;20038;-73
2022/01/02 00:53:46;;;;;;;18.23;7.38;;;11.60;99.90;;;;;;4992151;28;20060;-71
2022/01/02 00:56:14;;;;;;;13.57;7.15;;;11.60;99.90;;;;;;4992814;28;20034;-72
2022/01/02 00:58:49;;;;;;;11.77;7.18;;;11.60;99.90;;;;;;4981826;28;20125;-71
2022/01/02 01:01:22;;;;;;;13.77;7.10;;;11.60;99.90;;;;;;4984575;28;20493;-71
2022/01/02 01:03:53;;;;;;;11.93;7.03;;;11.60;99.90;;;;;;4991361;28;20511;-71
2022/01/02 01:06:24;;;;;;;13.63;7.30;;;11.60;99.90;;;;;;4992347;28;20702;-71
2022/01/02 01:08:56;;;;;;;13.40;7.10;;;11.60;99.90;;;;;;4991506;28;20437;-71
2022/01/02 01:11:27;;;;;;;12.40;7.80;;;11.60;99.90;;;;;;4987367;28;20121;-71
2022/01/02 01:13:54;;;;;;;16.13;7.20;;;11.60;99.90;;;;;;4988449;28;20101;-71
2022/01/02 01:16:20;;;;;;;14.80;7.85;;;11.60;99.90;;;;;;4991250;28;20493;-72
2022/01/02 01:18:46;;;;;;;13.93;7.32;;;11.60;99.90;;;;;;4989363;28;20416;-72
2022/01/02 01:21:12;;;;;;;13.48;7.75;;;11.70;99.90;;;;;;4991379;28;20042;-72
2022/01/02 01:23:39;;;;;;;15.90;8.95;;;11.60;99.90;;;;;;4990884;28;20050;-72
2022/01/02 01:26:07;;;;;;;13.55;7.57;;;11.60;99.90;;;;;;4993076;28;20042;-72
2022/01/02 01:28:33;;;;;;;14.50;7.68;;;11.50;99.90;;;;;;4991429;28;20038;-72
2022/01/02 01:30:58;;;;;;;16.23;8.13;;;11.60;99.90;;;;;;4992581;28;20050;-72
2022/01/02 01:33:24;;;;;;;13.50;7.78;;;11.60;99.90;;;;;;4989178;28;20038;-72
2022/01/02 01:35:50;;;;;;;15.73;7.80;;;11.60;99.90;;;;;;4990497;28;20485;-72
2022/01/02 01:38:15;;;;;;;12.27;7.38;;;11.60;99.90;;;;;;4992715;28;20035;-72
2022/01/02 01:40:57;;;;;;;15.82;7.65;;;11.60;99.90;;;;;;5006301;28;20035;-71
2022/01/02 01:43:37;;;;;;;18.10;7.80;;;11.60;99.90;;;;;;4986783;28;20049;-71
2022/01/02 01:46:03;;;;;;;21.63;8.30;;;11.50;99.90;;;;;;4989400;28;20046;-72
2022/01/02 01:48:29;;;;;;;18.80;8.48;;;11.50;99.90;;;;;;4991532;28;20092;-71
2022/01/02 01:50:55;;;;;;;18.63;8.23;;;11.50;99.90;;;;;;4992219;28;20497;-71
2022/01/02 01:53:21;;;;;;;16.30;7.55;;;11.50;99.90;;;;;;4992407;28;20127;-71
2022/01/02 01:55:47;;;;;;;16.20;7.97;;;11.50;99.90;;;;;;4988774;28;20078;-72
2022/01/02 01:58:13;;;;;;;23.05;8.32;;;11.50;99.90;;;;;;4991766;28;20516;-72
2022/01/02 02:00:38;;;;;;;19.58;7.75;;;11.50;99.90;;;;;;4995488;28;20073;-72
2022/01/02 02:03:06;;;;;;;16.70;7.93;;;11.50;99.90;;;;;;4995592;28;20069;-72
2022/01/02 02:05:32;;;;;;;17.80;7.97;;;11.50;99.90;;;;;;4988836;28;20030;-72
2022/01/02 02:07:57;;;;;;;17.50;8.35;;;11.60;99.90;;;;;;4985419;28;20096;-72
2022/01/02 02:10:27;;;;;;;16.92;8.50;;;11.50;99.90;;;;;;4989433;28;20034;-72
2022/01/02 02:12:55;;;;;;;16.27;8.18;;;11.50;99.90;;;;;;5006426;28;20046;-72
2022/01/02 02:15:22;;;;;;;14.55;8.10;;;11.50;99.90;;;;;;4988570;28;20069;-72
2022/01/02 02:17:50;;;;;;;17.42;8.80;;;11.50;99.90;;;;;;4989663;28;20046;-72
2022/01/02 02:20:17;;;;;;;20.50;9.10;;;11.60;99.90;;;;;;4989793;28;20393;-72
2022/01/02 02:22:46;;;;;;;19.25;8.88;;;11.60;99.90;;;;;;4991642;28;20042;-72
2022/01/02 02:25:14;;;;;;;15.90;8.27;;;11.60;99.90;;;;;;4973723;28;20575;-72
2022/01/02 02:27:46;;;;;;;19.70;8.57;;;11.50;99.90;;;;;;4990340;28;20042;-72
2022/01/02 02:30:12;;;;;;;17.27;8.45;;;11.60;99.90;;;;;;4986379;28;20053;-72
2022/01/02 02:32:38;;;;;;;18.55;8.40;;;11.60;99.90;;;;;;4987243;28;20034;-72
2022/01/02 02:35:04;;;;;;;17.20;7.88;;;11.60;99.90;;;;;;4985521;28;20050;-72
2022/01/02 02:37:30;;;;;;;21.02;8.38;;;11.60;99.90;;;;;;4989838;28;20050;-72
2022/01/02 02:39:56;;;;;;;19.45;8.32;;;11.60;99.90;;;;;;4986410;28;20038;-72
2022/01/02 02:42:42;;;;;;;17.33;9.02;;;11.60;99.90;;;;;;4990872;28;20046;-72
2022/01/02 02:51:09;;;;;;;23.63;9.25;;;11.70;99.90;;;;;;4989505;28;20057;-72
2022/01/02 02:53:38;;;;;;;17.95;8.18;;;11.60;99.90;;;;;;4984864;28;20107;-72
2022/01/02 02:56:14;;;;;;;15.35;7.90;;;11.60;99.90;;;;;;4982769;28;20053;-72
2022/01/02 02:58:41;;;;;;;17.13;8.90;;;11.60;99.90;;;;;;4984813;28;20034;-72
2022/01/02 03:01:11;;;;;;;16.88;8.20;;;11.60;99.90;;;;;;5003908;28;20097;-72
2022/01/02 03:03:38;;;;;;;19.17;8.40;;;11.60;99.90;;;;;;4990400;28;20149;-72
2022/01/02 03:06:04;;;;;;;21.77;8.65;;;11.60;99.90;;;;;;4989094;28;20575;-73
2022/01/02 03:08:31;;;;;;;16.27;8.48;;;11.60;99.90;;;;;;4982397;28;20050;-73
2022/01/02 03:10:57;;;;;;;19.98;8.57;;;11.60;99.90;;;;;;4989113;28;20090;-73
2022/01/02 03:13:23;;;;;;;19.30;8.38;;;11.60;99.90;;;;;;4987544;28;20046;-73
2022/01/02 03:15:49;;;;;;;16.27;7.55;;;11.60;99.90;;;;;;4988370;28;20045;-73
2022/01/02 03:18:15;;;;;;;25.00;8.60;;;11.60;99.90;;;;;;4989411;28;20096;-72
2022/01/02 03:20:41;;;;;;;17.02;8.07;;;11.60;99.90;;;;;;4987994;28;20050;-72
2022/01/02 03:23:06;;;;;;;16.88;7.53;;;11.60;99.90;;;;;;4990788;28;20073;-72
2022/01/02 03:25:32;;;;;;;21.88;8.05;;;11.60;99.90;;;;;;4990597;28;20049;-72
2022/01/02 03:27:58;;;;;;;21.15;8.75;;;11.50;99.90;;;;;;4989055;28;20050;-72
2022/01/02 03:30:23;;;;;;;19.40;8.35;;;11.50;99.90;;;;;;4981256;28;20100;-72
2022/01/02 03:32:49;;;;;;;20.63;8.50;;;11.60;99.90;;;;;;4982604;28;20129;-72
2022/01/02 03:35:14;;;;;;;19.40;8.82;;;11.50;99.90;;;;;;4986340;28;20074;-72
2022/01/02 03:37:40;;;;;;;16.35;8.23;;;11.50;99.90;;;;;;4989548;28;20054;-72
2022/01/02 03:40:09;;;;;;;19.63;8.60;;;11.50;99.90;;;;;;4989859;28;20034;-72
2022/01/02 03:42:35;;;;;;;17.88;8.55;;;11.50;99.90;;;;;;4990403;28;20672;-72
2022/01/02 03:45:01;;;;;;;16.33;8.20;;;11.50;99.90;;;;;;4991166;28;20584;-72
2022/01/02 03:47:27;;;;;;;17.88;7.55;;;11.50;99.90;;;;;;4987904;28;20042;-73
2022/01/02 03:49:53;;;;;;;17.98;7.97;;;11.50;99.90;;;;;;4989784;28;20046;-73
2022/01/02 03:52:19;;;;;;;16.58;7.80;;;11.50;99.90;;;;;;4989607;28;20058;-72
2022/01/02 03:54:45;;;;;;;18.75;8.48;;;11.50;99.90;;;;;;4989788;28;20034;-72
2022/01/02 03:57:11;;;;;;;22.17;7.60;;;11.50;99.90;;;;;;4989777;28;20039;-72
2022/01/02 03:59:37;;;;;;;19.25;7.95;;;11.60;99.90;;;;;;4989185;28;20042;-72
2022/01/02 04:02:02;;;;;;;19.65;8.50;;;11.60;99.90;;;;;;4991380;28;20041;-72
2022/01/02 04:04:29;;;;;;;19.35;7.80;;;11.60;99.90;;;;;;4988384;28;20069;-72
2022/01/02 04:06:55;;;;;;;20.45;8.07;;;11.60;99.90;;;;;;4995870;28;20042;-72
2022/01/02 04:09:23;;;;;;;20.42;8.73;;;11.60;99.90;;;;;;4989555;28;20050;-72
2022/01/02 04:11:49;;;;;;;14.90;7.53;;;11.60;99.90;;;;;;4989728;28;20551;-72
2022/01/02 04:14:15;;;;;;;17.58;7.13;;;11.60;99.90;;;;;;4990333;28;20109;-72
2022/01/02 04:16:40;;;;;;;20.25;7.80;;;11.70;99.90;;;;;;4989599;28;20120;-73
2022/01/02 04:19:06;;;;;;;20.45;7.15;;;11.70;99.90;;;;;;4994446;28;20382;-72
2022/01/02 04:21:32;;;;;;;18.60;6.88;;;11.70;99.90;;;;;;4992491;28;20038;-72
2022/01/02 04:23:57;;;;;;;18.60;7.40;;;11.70;99.90;;;;;;4988837;28;20442;-72
2022/01/02 04:26:23;;;;;;;18.65;6.70;;;11.70;99.90;;;;;;4990035;28;20073;-72
2022/01/02 04:28:48;;;;;;;20.23;7.10;;;11.80;99.90;;;;;;5008028;28;20489;-72
2022/01/02 04:31:17;;;;;;;19.13;7.10;;;11.80;99.90;;;;;;4992808;28;20142;-72
2022/01/02 04:33:43;;;;;;;21.15;6.57;;;11.80;99.90;;;;;;4976178;28;20092;-72
2022/01/02 04:36:09;;;;;;;19.50;6.90;;;11.80;99.90;;;;;;4990637;28;20046;-72
2022/01/02 04:38:36;;;;;;;24.27;6.78;;;11.80;99.90;;;;;;4987757;28;20038;-72
2022/01/02 04:41:02;;;;;;;16.08;6.15;;;11.80;99.90;;;;;;4991899;28;20117;-72
2022/01/02 04:43:28;;;;;;;14.35;6.25;;;11.90;99.90;;;;;;4992166;28;20173;-72
2022/01/02 04:45:56;;;;;;;17.77;6.45;;;11.90;99.90;;;;;;4987228;28;20046;-72
2022/01/02 04:48:22;;;;;;;14.23;5.95;;;11.90;99.90;;;;;;4985148;28;20046;-72
2022/01/02 04:50:48;;;;;;;13.73;5.70;;;11.90;99.90;;;;;;4986750;28;20469;-71
2022/01/02 04:53:14;;;;;;;20.40;6.55;;;12.00;99.90;;;;;;4975128;28;20398;-71
2022/01/02 04:55:40;;;;;;;17.23;6.00;;;12.00;99.90;;;;;;4985169;28;20102;-71
2022/01/02 04:58:06;;;;;;;19.10;5.53;;;12.00;99.90;;;;;;4990747;28;20050;-71
2022/01/02 05:00:32;;;;;;;15.38;6.25;;;12.00;99.90;;;;;;4991327;28;20034;-71
2022/01/02 05:02:57;;;;;;;15.82;5.75;;;12.00;99.90;;;;;;4991310;28;20047;-72
2022/01/02 05:05:23;;;;;;;13.75;5.50;;;12.00;99.90;;;;;;4991642;28;20381;-71
2022/01/02 05:07:49;;;;;;;15.63;5.22;;;12.10;99.90;;;;;;4988026;28;20038;-72
2022/01/02 05:10:15;;;;;;;17.63;6.22;;;12.10;99.90;;;;;;4992730;28;20042;-71
2022/01/02 05:12:40;;;;;;;17.10;6.22;;;12.10;99.90;;;;;;5006998;28;20233;-71
2022/01/02 05:15:07;;;;;;;14.95;5.43;;;12.10;99.90;;;;;;4990169;28;20038;-71
2022/01/02 05:17:32;;;;;;;17.58;5.63;;;12.10;99.90;;;;;;4992583;28;20085;-71
2022/01/02 05:19:58;;;;;;;19.23;6.43;;;12.10;99.90;;;;;;4995717;28;20042;-71
2022/01/02 05:22:24;;;;;;;15.95;5.40;;;12.00;99.90;;;;;;4990592;28;20049;-71
2022/01/02 05:24:49;;;;;;;16.52;6.07;;;12.10;99.90;;;;;;4991068;28;20073;-71
2022/01/02 05:27:15;;;;;;;20.80;6.00;;;12.10;99.90;;;;;;4984353;28;20133;-71
2022/01/02 05:29:41;;;;;;;22.67;5.95;;;12.10;99.90;;;;;;4986663;28;20121;-71
2022/01/02 05:32:06;;;;;;;17.33;5.35;;;12.00;99.90;;;;;;4988458;28;20108;-71
2022/01/02 05:34:35;;;;;;;20.00;5.97;;;12.00;99.90;;;;;;5001935;22;20043;-75
2022/01/02 05:37:01;;;;;;;14.13;5.55;;;12.10;99.90;;;;;;4975336;28;20042;-75
2022/01/02 05:39:26;;;;;;;18.02;5.20;;;12.10;99.90;;;;;;4970598;28;20100;-75
2022/01/02 05:41:52;;;;;;;16.67;5.20;;;12.20;99.90;;;;;;4974692;28;20155;-75
2022/01/02 05:44:18;;;;;;;18.55;5.53;;;12.20;99.90;;;;;;4973883;28;20047;-74
2022/01/02 05:46:45;;;;;;;17.00;5.47;;;12.20;99.90;;;;;;4955597;28;20045;-74
2022/01/02 05:49:11;;;;;;;16.52;5.07;;;12.20;99.90;;;;;;4966934;28;20126;-75
2022/01/02 05:51:37;;;;;;;16.70;5.10;;;12.30;99.90;;;;;;4976355;28;20122;-75
2022/01/02 05:54:04;;;;;;;12.20;4.50;;;12.40;99.90;;;;;;4969776;28;20117;-75
2022/01/02 05:56:30;;;;;;;13.27;4.63;;;12.40;99.90;;;;;;4972201;28;20050;-74
2022/01/02 05:58:56;;;;;;;14.48;4.95;;;12.50;99.90;;;;;;4969773;28;20042;-74
2022/01/02 06:01:22;;;;;;;14.35;4.22;;;12.50;99.90;;;;;;4970798;28;20108;-75
2022/01/02 06:03:47;;;;;;;13.43;4.50;;;12.50;99.90;;;;;;4971184;28;20197;-75
2022/01/02 06:06:13;;;;;;;12.00;4.00;;;12.60;99.90;;;;;;4969467;28;20043;-74
2022/01/02 06:08:39;;;;;;;12.35;4.35;;;12.60;99.90;;;;;;4965793;28;20050;-74
2022/01/02 06:11:04;;;;;;;11.57;3.97;;;12.60;99.90;;;;;;4970405;28;20047;-74
2022/01/02 06:13:30;;;;;;;13.50;4.40;;;12.60;99.90;;;;;;4967487;28;20046;-74
2022/01/02 06:15:56;;;;;;;13.85;4.50;;;12.60;99.90;;;;;;4969729;28;20062;-75
2022/01/02 06:18:22;;;;;;;12.00;3.78;;;12.70;99.90;;;;;;4970226;28;20049;-74
2022/01/02 06:20:48;;;;;;;13.55;4.97;;;12.70;99.90;;;;;;4966905;28;20047;-74
2022/01/02 06:23:13;;;;;;;12.38;5.10;;;12.70;99.90;;;;;;4950978;28;20078;-74
2022/01/02 06:25:39;;;;;;;13.50;3.75;;;12.70;99.90;;;;;;4968000;28;20420;-75
2022/01/02 06:28:05;;;;;;;15.57;3.95;;;12.70;99.90;;;;;;4969657;28;20062;-74
2022/01/02 06:30:32;;;;;;;9.00;3.55;;;12.70;99.90;;;;;;4968370;28;20026;-75
2022/01/02 06:32:57;;;;;;;9.85;3.67;;;12.70;99.90;;;;;;4970119;28;20119;-75
2022/01/02 06:35:29;;;;;;;9.50;3.30;;;12.70;99.90;;;;;;4963674;28;20043;-75
2022/01/02 06:37:55;;;;;;;13.73;4.53;;;12.80;99.90;;;;;;4962302;28;20134;-75
2022/01/02 06:40:22;;;;;;;10.52;3.33;;;12.70;99.90;;;;;;4970224;28;20121;-75
2022/01/02 06:42:48;;;;;;;9.20;3.60;;;12.70;99.90;;;;;;4992540;28;20054;-75
2022/01/02 06:45:14;;;;;;;11.55;3.92;;;12.70;99.90;;;;;;4968142;28;20045;-75
2022/01/02 06:47:39;;;;;;;11.50;4.07;;;12.70;99.90;;;;;;4966344;28;20167;-75
2022/01/02 06:50:06;;;;;;;8.15;3.72;;;12.70;99.90;;;;;;4963116;28;20047;-75
2022/01/02 06:52:32;;;;;;;11.45;3.65;;;12.70;99.90;;;;;;4968733;28;20078;-75
2022/01/02 06:54:57;;;;;;;10.82;3.85;;;12.70;99.90;;;;;;4969818;28;20132;-75
2022/01/02 06:57:23;;;;;;;8.55;3.88;;;12.70;99.90;;;;;;4986496;28;20497;-75
2022/01/02 06:59:50;;;;;;;12.15;4.15;;;12.60;99.90;;;;;;4986350;28;20047;-76
2022/01/02 07:02:16;;;;;;;15.30;3.80;;;12.60;99.90;;;;;;4970332;28;20038;-75
2022/01/02 07:04:42;;;;;;;7.00;3.47;;;12.60;99.90;;;;;;4969943;28;20065;-75
2022/01/02 07:07:07;;;;;;;12.25;4.15;;;12.60;99.90;;;;;;4969992;28;20105;-76
2022/01/02 07:09:33;;;;;;;11.90;4.03;;;12.60;99.90;;;;;;4969361;28;20127;-75
2022/01/02 07:12:00;;;;;;;10.65;4.18;;;12.60;99.90;;;;;;4969866;28;20061;-75
2022/01/02 07:14:27;;;;;;;10.57;4.22;;;12.60;99.90;;;;;;4970145;28;20043;-76
2022/01/02 07:16:57;;;;;;;13.43;4.25;;;12.60;99.90;;;;;;4972942;28;20074;-76
2022/01/02 07:19:23;;;;;;;8.02;3.50;;;12.60;99.90;;;;;;4968604;28;20066;-76
2022/01/02 07:21:50;;;;;;;10.98;4.18;;;12.60;99.90;;;;;;4966228;28;20097;-75
2022/01/02 07:24:16;;;;;;;7.57;3.85;;;12.50;99.90;;;;;;4969571;28;20046;-76
2022/01/02 07:26:42;;;;;;;11.90;4.07;;;12.50;99.90;;;;;;4967016;28;20046;-76
2022/01/02 07:29:08;;;;;;;13.05;4.38;;;12.50;99.90;;;;;;4965797;28;20097;-76
2022/01/02 07:31:34;;;;;;;9.05;4.18;;;12.50;99.90;;;;;;4953105;28;20393;-76
2022/01/02 07:33:59;;;;;;;8.30;3.70;;;12.50;99.90;;;;;;4971899;28;20047;-76
2022/01/02 07:36:25;;;;;;;6.85;3.42;;;12.50;99.90;;;;;;4953087;28;20034;-76
2022/01/02 07:38:50;;;;;;;8.43;3.78;;;12.60;99.90;;;;;;4967582;28;20091;-76
2022/01/02 07:41:16;;;;;;;12.15;3.90;;;12.60;99.90;;;;;;4969469;28;20097;-75
2022/01/02 07:43:42;;;;;;;13.90;4.22;;;12.60;99.90;;;;;;4986348;28;20082;-76
2022/01/02 07:46:08;;;;;;;9.73;3.97;;;12.60;99.90;;;;;;4968321;28;20038;-76
2022/01/02 07:48:33;;;;;;;10.30;3.92;;;12.60;99.90;;;;;;4963178;28;20039;-76
2022/01/02 07:50:59;;;;;;;12.27;4.60;;;12.60;99.90;;;;;;4975685;28;20039;-76
2022/01/02 07:53:25;;;;;;;13.00;4.65;;;12.50;99.90;;;;;;4971077;28;20031;-75
2022/01/02 07:55:50;;;;;;;10.27;4.50;;;12.50;99.90;;;;;;4973022;28;20038;-75
2022/01/02 07:58:16;;;;;;;15.75;4.40;;;12.40;99.90;;;;;;4981707;28;20043;-75
2022/01/02 08:00:42;;;;;;;11.23;4.45;;;12.40;99.90;;;;;;4972017;28;20540;-75
2022/01/02 08:03:08;;;;;;;9.98;4.60;;;12.40;99.90;;;;;;4973496;28;20107;-75
2022/01/02 08:05:34;;;;;;;10.23;4.65;;;12.30;99.90;;;;;;4970306;28;20047;-75
2022/01/02 08:08:00;;;;;;;8.82;4.45;;;12.30;99.90;;;;;;4972122;28;20031;-75
2022/01/02 08:10:27;;;;;;;17.42;5.13;;;12.30;99.90;;;;;;4971900;28;20556;-75
2022/01/02 08:12:53;;;;;;;16.33;5.28;;;12.20;99.90;;;;;;4969004;28;20520;-75
2022/01/02 08:15:20;;;;;;;11.20;4.60;;;12.20;99.90;;;;;;4972596;28;20062;-75
2022/01/02 08:17:46;;;;;;;10.00;4.22;;;12.20;99.90;;;;;;4989792;28;20046;-75
2022/01/02 08:20:12;;;;;;;12.30;4.63;;;12.20;99.90;;;;;;4944284;28;20051;-75
2022/01/02 08:22:37;;;;;;;13.27;4.25;;;12.20;99.90;;;;;;4989183;28;20038;-75
2022/01/02 08:25:04;;;;;;;12.25;4.38;;;12.20;99.90;;;;;;4979699;28;20046;-75
2022/01/02 08:27:30;;;;;;;14.30;4.38;;;12.20;99.90;;;;;;4971709;28;20640;-75
2022/01/02 08:29:55;;;;;;;8.38;4.00;;;12.20;99.90;;;;;;4972344;28;20039;-75
2022/01/02 08:32:21;;;;;;;8.93;4.50;;;12.10;99.90;;;;;;4956682;28;20031;-75
2022/01/02 08:34:47;;;;;;;7.35;4.07;;;12.10;99.90;;;;;;4971434;28;20046;-75
2022/01/02 08:37:15;;;;;;;11.20;4.25;;;12.10;99.90;;;;;;4958984;28;20121;-75
2022/01/02 08:39:42;;;;;;;15.25;4.97;;;12.10;99.90;;;;;;4971534;28;20389;-75
2022/01/02 08:42:09;;;;;;;12.73;4.65;;;12.10;99.90;;;;;;4972134;28;20046;-75
2022/01/02 08:44:35;;;;;;;10.02;4.22;;;12.10;99.90;;;;;;4971559;28;20074;-75
2022/01/02 08:47:01;;;;;;;9.00;4.05;;;12.10;99.90;;;;;;4971750;28;20374;-75
2022/01/02 08:49:27;;;;;;;14.50;4.88;;;12.20;99.90;;;;;;4988736;28;20134;-75
2022/01/02 08:51:54;;;;;;;9.52;4.60;;;12.10;99.90;;;;;;4972685;28;20046;-75
2022/01/02 08:54:19;;;;;;;10.68;4.38;;;12.10;99.90;;;;;;4971478;28;20035;-75
2022/01/02 08:56:45;;;;;;;11.65;4.72;;;12.10;99.90;;;;;;4971843;28;20497;-75
2022/01/02 08:59:11;;;;;;;7.72;4.13;;;12.00;99.90;;;;;;4974705;28;20073;-75
2022/01/02 09:01:36;;;;;;;9.80;4.20;;;12.10;99.90;;;;;;4971667;28;20049;-75
2022/01/02 09:04:02;;;;;;;9.75;4.07;;;12.10;99.90;;;;;;4956313;28;20114;-75
2022/01/02 09:06:28;;;;;;;9.35;4.40;;;12.10;99.90;;;;;;4968428;28;20042;-75
2022/01/02 09:08:55;;;;;;;11.95;4.03;;;12.20;99.90;;;;;;4984437;28;20039;-75
2022/01/02 09:11:21;;;;;;;12.88;3.97;;;12.10;99.90;;;;;;4971160;28;20042;-75
2022/01/02 09:13:47;;;;;;;12.20;4.35;;;12.10;99.90;;;;;;4968985;28;20121;-75
2022/01/02 09:16:12;;;;;;;11.77;4.40;;;12.20;99.90;;;;;;4971891;28;20121;-75
2022/01/02 09:18:38;;;;;;;11.40;4.50;;;12.30;99.90;;;;;;4948477;28;20506;-75
2022/01/02 09:21:04;;;;;;;11.25;4.70;;;12.30;99.90;;;;;;4970942;28;20054;-75
2022/01/02 09:23:30;;;;;;;9.38;4.25;;;12.30;99.90;;;;;;4964569;28;20047;-75
2022/01/02 09:25:55;;;;;;;9.77;4.10;;;12.30;99.90;;;;;;4967454;28;20489;-75
2022/01/02 09:28:21;;;;;;;11.23;4.20;;;12.30;99.90;;;;;;4971005;28;20616;-75
2022/01/02 09:30:47;;;;;;;11.30;4.35;;;12.30;99.90;;;;;;4971022;28;20584;-75
2022/01/02 09:33:12;;;;;;;8.60;4.00;;;12.30;99.90;;;;;;4976787;28;20490;-75
2022/01/02 09:35:41;;;;;;;10.70;4.15;;;12.30;99.90;;;;;;4968411;28;21314;-75
2022/01/02 09:38:09;;;;;;;10.70;3.78;;;12.30;99.90;;;;;;4984124;28;20061;-75
2022/01/02 09:40:35;;;;;;;10.07;3.53;;;12.40;99.90;;;;;;4970084;28;20042;-75
2022/01/02 09:43:02;;;;;;;9.65;3.92;;;12.40;99.90;;;;;;4965366;28;20035;-75
2022/01/02 09:45:28;;;;;;;9.75;3.90;;;12.30;99.90;;;;;;4963880;28;20034;-75
2022/01/02 09:47:55;;;;;;;10.05;4.25;;;12.40;99.90;;;;;;4969482;28;20516;-75
2022/01/02 09:50:21;;;;;;;9.57;4.20;;;12.40;99.90;;;;;;4973117;28;20046;-75
2022/01/02 09:52:49;;;;;;;7.95;4.10;;;12.50;99.90;;;;;;4986566;28;20035;-75
2022/01/02 09:55:15;;;;;;;8.93;4.43;;;12.40;99.90;;;;;;4966820;28;20096;-76
2022/01/02 09:57:46;;;;;;;8.68;4.00;;;12.40;99.90;;;;;;4966881;28;20047;-76
2022/01/02 10:00:13;;;;;;;7.28;3.92;;;12.40;99.90;;;;;;4978380;28;20051;-76
2022/01/02 10:03:04;;;;;;;9.55;4.18;;;12.40;99.90;;;;;;4948843;28;20048;-76
2022/01/02 10:05:47;;;;;;;8.98;4.47;;;12.50;99.90;;;;;;4969819;28;20051;-76
2022/01/02 10:08:34;;;;;;;9.73;4.55;;;12.50;99.90;;;;;;4970107;28;20093;-76
2022/01/02 10:11:05;;;;;;;9.90;3.90;;;12.50;99.90;;;;;;4970516;28;20511;-76
2022/01/02 10:13:43;;;;;;;9.57;4.07;;;12.50;99.90;;;;;;4969439;28;20493;-76
2022/01/02 10:16:26;;;;;;;8.15;4.35;;;12.50;99.90;;;;;;4970983;28;20050;-76
2022/01/02 10:18:53;;;;;;;8.77;4.13;;;12.40;99.90;;;;;;4974410;28;20043;-75
2022/01/02 10:21:37;;;;;;;10.88;4.32;;;12.50;99.90;;;;;;4973433;28;20049;-76
2022/01/02 10:24:26;;;;;;;8.00;3.97;;;12.40;99.90;;;;;;4977280;28;20046;-76
2022/01/02 10:27:17;;;;;;;7.88;4.20;;;12.50;99.90;;;;;;4981055;28;20046;-76
2022/01/02 10:29:44;;;;;;;8.18;4.45;;;12.50;99.90;;;;;;4966280;28;20053;-76
2022/01/02 10:32:48;;;;;;;6.80;4.10;;;12.60;99.90;;;;;;4963725;28;20129;-76
2022/01/02 10:35:21;;;;;;;9.50;4.57;;;12.70;99.90;;;;;;4912400;29;20179;-74
2022/01/02 10:37:57;;;;;;;10.23;4.30;;;12.60;99.90;;;;;;4929088;29;20085;-76
2022/01/02 10:40:38;;;;;;;9.75;4.47;;;12.60;99.90;;;;;;4944520;28;20050;-75
2022/01/02 10:43:24;;;;;;;9.43;4.45;;;12.70;99.90;;;;;;4965976;28;20055;-76
2022/01/02 10:45:50;;;;;;;11.90;4.47;;;12.60;99.90;;;;;;4948152;28;20045;-76
2022/01/02 10:48:29;;;;;;;11.27;5.13;;;12.70;99.90;;;;;;4966292;28;20110;-76
2022/01/02 10:51:14;;;;;;;13.00;4.38;;;12.70;99.90;;;;;;4966487;28;20038;-76
2022/01/02 10:53:57;;;;;;;9.35;4.15;;;12.80;99.90;;;;;;4963476;28;20494;-76
2022/01/02 10:56:24;;;;;;;;;;;12.80;99.90;;;;;;4962330;28;20030;-75
2022/01/02 10:58:50;;;;;;;10.05;4.32;;;12.80;99.90;;;;;;4965004;28;19929;-76
2022/01/02 11:01:16;;;;;;;8.75;4.10;;;12.80;99.90;;;;;;4962607;28;20038;-76
2022/01/02 11:03:45;;;;;;;9.88;4.18;;;12.80;99.90;;;;;;4960716;28;20121;-76
2022/01/02 11:16:42;;;;;;;10.18;4.65;;;12.70;99.90;;;;;;4982300;28;20053;-75
2022/01/02 11:19:11;;;;;;;11.23;4.57;;;12.70;99.90;;;;;;4980709;28;20066;-75
2022/01/02 11:21:40;;;;;;;9.70;4.70;;;12.60;99.90;;;;;;4979326;28;20038;-76
2022/01/02 11:24:38;;;;;;;12.57;5.57;;;12.60;99.90;;;;;;4983024;28;20121;-76
2022/01/02 11:27:28;;;;;;;10.57;4.82;;;12.60;99.90;;;;;;4981044;28;20042;-76
2022/01/02 11:29:54;;;;;;;9.75;4.53;;;12.70;99.90;;;;;;4969132;28;20101;-76
2022/01/02 11:32:27;;;;;;;11.88;4.63;;;12.70;99.90;;;;;;4972395;28;20037;-76
2022/01/02 11:34:55;;;;;;;8.70;4.50;;;12.60;99.90;;;;;;5008244;22;20042;-73
2022/01/02 11:37:26;;;;;;;10.82;4.32;;;12.60;99.90;;;;;;4980119;28;20046;-73
2022/01/02 11:40:01;;;;;;;9.48;4.70;;;12.60;99.90;;;;;;5008533;28;20126;-73
2022/01/02 11:42:49;;;;;;;10.65;4.40;;;12.50;99.90;;;;;;4993418;28;20037;-73
2022/01/02 11:45:22;;;;;;;9.85;4.60;;;12.50;99.90;;;;;;4980993;28;20046;-74
2022/01/02 11:47:51;;;;;;;12.57;4.57;;;12.60;99.90;;;;;;4977496;28;20104;-73
2022/01/02 11:50:37;;;;;;;11.82;4.88;;;12.60;99.90;;;;;;4979182;28;20499;-73
2022/01/02 11:53:10;;;;;;;11.68;4.32;;;12.50;99.90;;;;;;4992424;28;20038;-73
2022/01/02 11:55:36;;;;;;;12.60;4.15;;;12.60;99.90;;;;;;5012224;28;20030;-73
2022/01/02 11:58:02;;;;;;;12.45;4.55;;;12.60;99.90;;;;;;5011015;28;20038;-73
2022/01/02 12:00:36;;;;;;;10.45;4.53;;;12.70;99.90;;;;;;5012599;28;20041;-73
2022/01/02 12:03:03;;;;;;;12.23;4.15;;;12.60;99.90;;;;;;5008429;28;20176;-73
2022/01/02 12:05:29;;;;;;;12.00;4.50;;;12.60;99.90;;;;;;5010641;28;20034;-73
2022/01/02 12:08:00;;;;;;;13.45;4.40;;;12.60;99.90;;;;;;4978170;28;20057;-74
2022/01/02 12:12:09;;;;;;;11.32;3.88;;;12.60;99.90;;;;;;4992592;28;20528;-74
2022/01/02 12:15:45;;;;;;;11.50;4.32;;;12.60;99.90;;;;;;5007344;28;20093;-74
2022/01/02 12:18:49;;;;;;;11.23;4.07;;;12.50;99.90;;;;;;4978977;28;20103;-73
2022/01/02 12:22:27;;;;;;;13.15;4.07;;;12.60;99.90;;;;;;5010420;28;20153;-73
2022/01/02 12:25:23;;;;;;;11.60;3.75;;;12.50;99.90;;;;;;5008414;28;20089;-73
2022/01/02 12:28:14;;;;;;;13.85;4.40;;;12.50;99.90;;;;;;4997714;28;20041;-73
2022/01/02 12:31:18;;;;;;;11.60;4.05;;;12.50;99.90;;;;;;5012026;28;20121;-73
2022/01/02 12:34:04;;;;;;;15.30;3.63;;;12.50;99.90;;;;;;5007077;28;20052;-73
2022/01/02 12:36:31;;;;;;;15.07;3.20;;;12.60;99.90;;;;;;4993020;28;20076;-73
2022/01/02 12:39:24;;;;;;;16.30;3.13;;;12.60;99.90;;;;;;4979245;28;20050;-74
2022/01/02 12:42:51;;;;;;;13.93;3.50;;;12.60;99.90;;;;;;4985164;28;20053;-73
2022/01/02 12:49:44;;;;;;;11.20;2.53;;;12.70;99.90;;;;;;4971735;28;20850;-74
2022/01/02 12:52:32;;;;;;;12.68;2.70;;;12.80;99.90;;;;;;4955092;28;20155;-73
2022/01/02 12:55:09;;;;;;;15.00;3.33;;;12.70;99.90;;;;;;4977065;28;20035;-73
2022/01/02 12:58:12;;;;;;;12.45;2.63;;;12.70;99.90;;;;;;4965125;28;20033;-74
2022/01/02 13:01:10;;;;;;;16.15;3.72;;;12.70;99.90;;;;;;4965378;28;20096;-73
2022/01/02 13:03:53;;;;;;;11.52;2.75;;;12.60;99.90;;;;;;5011993;28;20041;-74
2022/01/02 13:06:39;;;;;;;12.93;3.25;;;12.60;99.90;;;;;;4984629;28;20650;-74
2022/01/02 13:09:40;;;;;;;13.82;2.80;;;12.60;99.90;;;;;;5005823;28;20137;-73
2022/01/02 13:12:14;;;;;;;15.90;3.17;;;12.50;99.90;;;;;;4986062;28;20037;-73
2022/01/02 13:14:54;;;;;;;10.27;2.83;;;12.60;99.90;;;;;;5001209;28;20052;-73